KCRW Airport Diagram

We have created a template for each of the higher traffic airports in the vZID airspace. They include KCMH, KCRW, KCVG, KDAY, KIND, KLEX and KSDF. You wil find usefull information including the airport diagram, weather, and specific airport procedures.

KCRW Weather

[Source: ADDS]
METAR
KCRW 240754Z 10010KT 7SM RA SCT040 OVC080 12/09 A3002 RMK AO2 RAB11 SLP165 P0004 T01220094 =
TAF
KCRW 240539Z 2406/2506 06007KT P6SM BKN050 OVC120 TEMPO 2412/2415 5SM -SHRA FM241500 09008KT P6SM -SHRA OVC050 FM242200 07004KT P6SM -SHRA OVC070 FM250500 35003KT P6SM OVC030 =

KCRW Operations

Calm wind runway up to 10kts: Rw 23

 

JSN Epic template designed by JoomlaShine.com